sensor_id;sensor_type;location;lat;lon;timestamp;temperature;humidity
14154;DHT22;7157;53.144;7.570;2023-04-03T00:00:21;3.47;71.34
14154;DHT22;7157;53.144;7.570;2023-04-03T00:10:25;3.33;73.16
14154;DHT22;7157;53.144;7.570;2023-04-03T00:20:28;3.25;74.18
14154;DHT22;7157;53.144;7.570;2023-04-03T00:30:32;3.12;74.65
14154;DHT22;7157;53.144;7.570;2023-04-03T00:40:37;3.02;75.18
14154;DHT22;7157;53.144;7.570;2023-04-03T00:50:42;2.85;76.73
14154;DHT22;7157;53.144;7.570;2023-04-03T01:00:50;2.74;77.88
14154;DHT22;7157;53.144;7.570;2023-04-03T01:11:00;2.64;78.01
14154;DHT22;7157;53.144;7.570;2023-04-03T01:21:29;2.46;79.61
14154;DHT22;7157;53.144;7.570;2023-04-03T01:31:46;2.31;79.98
14154;DHT22;7157;53.144;7.570;2023-04-03T01:41:49;2.15;80.50
14154;DHT22;7157;53.144;7.570;2023-04-03T01:51:53;2.00;81.82
14154;DHT22;7157;53.144;7.570;2023-04-03T02:01:56;1.98;80.49
14154;DHT22;7157;53.144;7.570;2023-04-03T02:12:00;1.70;82.29
14154;DHT22;7157;53.144;7.570;2023-04-03T02:22:03;1.68;83.71
14154;DHT22;7157;53.144;7.570;2023-04-03T02:32:08;1.64;84.17
14154;DHT22;7157;53.144;7.570;2023-04-03T02:42:10;1.56;84.81
14154;DHT22;7157;53.144;7.570;2023-04-03T02:52:14;1.54;85.55
14154;DHT22;7157;53.144;7.570;2023-04-03T03:02:17;1.43;85.71
14154;DHT22;7157;53.144;7.570;2023-04-03T03:12:21;1.34;86.17
14154;DHT22;7157;53.144;7.570;2023-04-03T03:22:25;1.23;86.29
14154;DHT22;7157;53.144;7.570;2023-04-03T03:32:29;1.24;86.82
14154;DHT22;7157;53.144;7.570;2023-04-03T03:42:32;1.17;86.51
14154;DHT22;7157;53.144;7.570;2023-04-03T03:52:36;0.99;87.29
14154;DHT22;7157;53.144;7.570;2023-04-03T04:02:40;1.01;87.39
14154;DHT22;7157;53.144;7.570;2023-04-03T04:12:44;0.88;88.25
14154;DHT22;7157;53.144;7.570;2023-04-03T04:22:46;0.81;87.73
14154;DHT22;7157;53.144;7.570;2023-04-03T04:32:50;0.78;88.44
14154;DHT22;7157;53.144;7.570;2023-04-03T04:42:53;0.64;88.83
14154;DHT22;7157;53.144;7.570;2023-04-03T04:52:57;0.60;89.00
14154;DHT22;7157;53.144;7.570;2023-04-03T05:03:00;0.69;89.28
14154;DHT22;7157;53.144;7.570;2023-04-03T05:13:04;0.67;88.81
14154;DHT22;7157;53.144;7.570;2023-04-03T05:23:07;0.76;87.92
14154;DHT22;7157;53.144;7.570;2023-04-03T05:33:11;0.72;88.27
14154;DHT22;7157;53.144;7.570;2023-04-03T05:43:15;0.78;88.60
14154;DHT22;7157;53.144;7.570;2023-04-03T05:53:22;0.98;89.06
14154;DHT22;7157;53.144;7.570;2023-04-03T06:03:26;1.14;88.94
14154;DHT22;7157;53.144;7.570;2023-04-03T06:13:30;1.41;88.54
14154;DHT22;7157;53.144;7.570;2023-04-03T06:23:33;1.69;88.38
14154;DHT22;7157;53.144;7.570;2023-04-03T06:33:37;1.88;88.09
14154;DHT22;7157;53.144;7.570;2023-04-03T06:43:40;2.14;87.97
14154;DHT22;7157;53.144;7.570;2023-04-03T06:53:44;2.45;87.38
14154;DHT22;7157;53.144;7.570;2023-04-03T07:03:47;2.81;86.72
14154;DHT22;7157;53.144;7.570;2023-04-03T07:13:52;3.14;85.75
14154;DHT22;7157;53.144;7.570;2023-04-03T07:23:55;3.54;83.57
14154;DHT22;7157;53.144;7.570;2023-04-03T07:33:59;3.99;82.01
14154;DHT22;7157;53.144;7.570;2023-04-03T07:44:01;4.32;79.26
14154;DHT22;7157;53.144;7.570;2023-04-03T07:54:07;4.79;78.00
14154;DHT22;7157;53.144;7.570;2023-04-03T08:04:10;5.12;74.42
14154;DHT22;7157;53.144;7.570;2023-04-03T08:14:14;5.59;70.54
14154;DHT22;7157;53.144;7.570;2023-04-03T08:24:19;5.97;66.24
14154;DHT22;7157;53.144;7.570;2023-04-03T08:34:24;6.35;63.70
14154;DHT22;7157;53.144;7.570;2023-04-03T08:44:36;6.59;57.66
14154;DHT22;7157;53.144;7.570;2023-04-03T08:54:49;6.99;53.63
14154;DHT22;7157;53.144;7.570;2023-04-03T09:04:52;7.05;51.51
14154;DHT22;7157;53.144;7.570;2023-04-03T09:15:02;7.53;49.59
14154;DHT22;7157;53.144;7.570;2023-04-03T09:25:12;7.63;50.07
14154;DHT22;7157;53.144;7.570;2023-04-03T09:35:21;8.08;49.87
14154;DHT22;7157;53.144;7.570;2023-04-03T09:45:40;8.46;44.72
14154;DHT22;7157;53.144;7.570;2023-04-03T09:55:45;8.59;45.51
14154;DHT22;7157;53.144;7.570;2023-04-03T10:05:48;8.79;43.23
14154;DHT22;7157;53.144;7.570;2023-04-03T10:15:57;9.00;41.41
14154;DHT22;7157;53.144;7.570;2023-04-03T10:26:12;9.22;42.42
14154;DHT22;7157;53.144;7.570;2023-04-03T10:36:26;9.39;41.16
14154;DHT22;7157;53.144;7.570;2023-04-03T10:46:36;9.63;42.31
14154;DHT22;7157;53.144;7.570;2023-04-03T10:56:42;9.99;40.33
14154;DHT22;7157;53.144;7.570;2023-04-03T11:06:49;10.25;40.93
14154;DHT22;7157;53.144;7.570;2023-04-03T11:17:11;10.55;40.26
14154;DHT22;7157;53.144;7.570;2023-04-03T11:27:21;12.20;42.29
14154;DHT22;7157;53.144;7.570;2023-04-03T11:37:31;25.42;15.74
14154;DHT22;7157;53.144;7.570;2023-04-03T11:47:48;29.18;13.47
14154;DHT22;7157;53.144;7.570;2023-04-03T11:58:10;30.50;12.51
14154;DHT22;7157;53.144;7.570;2023-04-03T12:08:25;29.66;10.66
14154;DHT22;7157;53.144;7.570;2023-04-03T12:18:58;28.53;11.77
14154;DHT22;7157;53.144;7.570;2023-04-03T12:29:13;28.84;11.02
14154;DHT22;7157;53.144;7.570;2023-04-03T12:39:33;30.01;11.30
14154;DHT22;7157;53.144;7.570;2023-04-03T12:49:40;30.48;9.73
14154;DHT22;7157;53.144;7.570;2023-04-03T12:59:45;29.34;10.85
14154;DHT22;7157;53.144;7.570;2023-04-03T13:09:55;28.56;10.68
14154;DHT22;7157;53.144;7.570;2023-04-03T13:20:13;25.08;13.04
14154;DHT22;7157;53.144;7.570;2023-04-03T13:30:22;20.71;18.60
14154;DHT22;7157;53.144;7.570;2023-04-03T13:40:27;20.55;19.55
14154;DHT22;7157;53.144;7.570;2023-04-03T13:51:12;20.22;19.26
14154;DHT22;7157;53.144;7.570;2023-04-03T14:01:22;19.66;21.47
14154;DHT22;7157;53.144;7.570;2023-04-03T14:11:28;19.17;21.79
14154;DHT22;7157;53.144;7.570;2023-04-03T14:21:33;19.22;21.78
14154;DHT22;7157;53.144;7.570;2023-04-03T14:31:36;17.74;23.38
14154;DHT22;7157;53.144;7.570;2023-04-03T14:41:40;16.71;25.29
14154;DHT22;7157;53.144;7.570;2023-04-03T14:51:43;17.07;25.20
14154;DHT22;7157;53.144;7.570;2023-04-03T15:01:47;16.50;26.71
14154;DHT22;7157;53.144;7.570;2023-04-03T15:11:51;16.94;26.20
14154;DHT22;7157;53.144;7.570;2023-04-03T15:21:55;15.68;28.18
14154;DHT22;7157;53.144;7.570;2023-04-03T15:31:58;16.20;27.54
14154;DHT22;7157;53.144;7.570;2023-04-03T15:42:03;14.63;30.13
14154;DHT22;7157;53.144;7.570;2023-04-03T15:52:07;14.18;31.03
14154;DHT22;7157;53.144;7.570;2023-04-03T16:02:12;13.93;31.71
14154;DHT22;7157;53.144;7.570;2023-04-03T16:12:15;13.58;33.92
14154;DHT22;7157;53.144;7.570;2023-04-03T16:22:20;14.06;33.25
14154;DHT22;7157;53.144;7.570;2023-04-03T16:32:23;14.08;32.98
14154;DHT22;7157;53.144;7.570;2023-04-03T16:42:29;13.05;34.25
14154;DHT22;7157;53.144;7.570;2023-04-03T16:52:34;12.50;35.42
14154;DHT22;7157;53.144;7.570;2023-04-03T17:02:38;12.25;35.36
14154;DHT22;7157;53.144;7.570;2023-04-03T17:12:41;11.66;37.01
14154;DHT22;7157;53.144;7.570;2023-04-03T17:22:45;11.12;38.17
14154;DHT22;7157;53.144;7.570;2023-04-03T17:32:48;10.25;40.15
14154;DHT22;7157;53.144;7.570;2023-04-03T17:42:53;9.68;42.77
14154;DHT22;7157;53.144;7.570;2023-04-03T17:52:55;9.17;45.44
14154;DHT22;7157;53.144;7.570;2023-04-03T18:02:59;8.78;46.89
14154;DHT22;7157;53.144;7.570;2023-04-03T18:13:03;8.27;49.22
14154;DHT22;7157;53.144;7.570;2023-04-03T18:23:07;7.93;52.09
14154;DHT22;7157;53.144;7.570;2023-04-03T18:33:10;7.78;54.28
14154;DHT22;7157;53.144;7.570;2023-04-03T18:43:14;7.47;55.95
14154;DHT22;7157;53.144;7.570;2023-04-03T18:53:17;7.31;57.26
14154;DHT22;7157;53.144;7.570;2023-04-03T19:03:21;7.08;58.99
14154;DHT22;7157;53.144;7.570;2023-04-03T19:13:24;6.84;59.84
14154;DHT22;7157;53.144;7.570;2023-04-03T19:23:29;6.51;61.10
14154;DHT22;7157;53.144;7.570;2023-04-03T19:33:32;6.16;64.11
14154;DHT22;7157;53.144;7.570;2023-04-03T19:43:37;5.99;66.27
14154;DHT22;7157;53.144;7.570;2023-04-03T19:53:40;5.94;66.59
14154;DHT22;7157;53.144;7.570;2023-04-03T20:03:44;5.81;67.25
14154;DHT22;7157;53.144;7.570;2023-04-03T20:13:48;5.68;68.17
14154;DHT22;7157;53.144;7.570;2023-04-03T20:23:52;5.57;67.71
14154;DHT22;7157;53.144;7.570;2023-04-03T20:33:55;5.18;70.42
14154;DHT22;7157;53.144;7.570;2023-04-03T20:43:59;5.24;69.51
14154;DHT22;7157;53.144;7.570;2023-04-03T20:54:03;4.93;70.41
14154;DHT22;7157;53.144;7.570;2023-04-03T21:04:11;4.72;71.08
14154;DHT22;7157;53.144;7.570;2023-04-03T21:24:58;4.65;71.74
14154;DHT22;7157;53.144;7.570;2023-04-03T21:35:01;4.47;71.80
14154;DHT22;7157;53.144;7.570;2023-04-03T21:45:07;4.21;73.21
14154;DHT22;7157;53.144;7.570;2023-04-03T21:55:10;4.14;74.12
14154;DHT22;7157;53.144;7.570;2023-04-03T22:05:17;4.01;75.58
14154;DHT22;7157;53.144;7.570;2023-04-03T22:15:20;3.86;77.76
14154;DHT22;7157;53.144;7.570;2023-04-03T22:25:24;3.75;78.75
14154;DHT22;7157;53.144;7.570;2023-04-03T22:35:27;3.77;79.64
14154;DHT22;7157;53.144;7.570;2023-04-03T22:45:31;3.84;80.62
14154;DHT22;7157;53.144;7.570;2023-04-03T22:55:34;3.88;78.98
14154;DHT22;7157;53.144;7.570;2023-04-03T23:05:39;3.87;78.13
14154;DHT22;7157;53.144;7.570;2023-04-03T23:15:42;3.90;76.68
14154;DHT22;7157;53.144;7.570;2023-04-03T23:25:50;3.79;76.28
14154;DHT22;7157;53.144;7.570;2023-04-03T23:35:52;3.65;76.10
14154;DHT22;7157;53.144;7.570;2023-04-03T23:45:57;3.52;75.75
14154;DHT22;7157;53.144;7.570;2023-04-03T23:56:00;3.41;75.90
